createdAt,value
2019-04-22T00:03:37.770Z,74.10
2019-04-22T00:09:03.728Z,74.60
2019-04-22T00:14:09.515Z,74.70
2019-04-22T00:19:22.723Z,74.60
2019-04-22T00:24:25.566Z,74.70
2019-04-22T00:29:49.856Z,74.80
2019-04-22T00:34:42.711Z,74.30
2019-04-22T00:39:52.060Z,74.50
2019-04-22T00:45:08.041Z,73.70
2019-04-22T00:50:25.372Z,73.60
2019-04-22T00:55:23.083Z,73.20
2019-04-22T01:00:25.075Z,72.70
2019-04-22T01:05:34.490Z,72.90
2019-04-22T01:10:46.815Z,72.90
2019-04-22T01:15:47.831Z,72.60
2019-04-22T01:21:06.956Z,72.50
2019-04-22T01:25:59.618Z,72.40
2019-04-22T01:30:57.745Z,72.50
2019-04-22T01:36:13.991Z,72.80
2019-04-22T01:41:35.919Z,72.70
2019-04-22T01:46:40.359Z,73.30
2019-04-22T01:51:51.764Z,73.70
2019-04-22T01:56:53.853Z,73.70
2019-04-22T02:01:55.162Z,74.00
2019-04-22T02:07:12.529Z,74.10
2019-04-22T02:12:15.364Z,74.70
2019-04-22T02:17:26.654Z,74.90
2019-04-22T02:22:42.852Z,75.10
2019-04-22T02:27:38.966Z,75.50
2019-04-22T02:33:03.870Z,76.00
2019-04-22T02:37:54.472Z,76.70
2019-04-22T02:43:01.747Z,77.20
2019-04-22T02:48:18.869Z,77.70
2019-04-22T02:53:38.510Z,77.40
2019-04-22T02:58:44.975Z,77.20
2019-04-22T03:03:41.892Z,77.80
2019-04-22T03:08:45.672Z,78.20
2019-04-22T03:24:17.566Z,78.50
2019-04-22T03:29:11.362Z,78.50
2019-04-22T03:39:38.114Z,79.00
2019-04-22T03:44:40.203Z,79.00
2019-04-22T03:49:45.379Z,79.30
2019-04-22T03:55:00.738Z,79.60
2019-04-22T03:59:57.314Z,80.10
2019-04-22T04:04:58.757Z,80.20
2019-04-22T04:10:19.190Z,79.70
2019-04-22T04:15:21.150Z,79.90
2019-04-22T04:40:57.362Z,75.40
2019-04-22T04:46:06.469Z,71.30
2019-04-22T04:56:22.806Z,67.80
2019-04-22T05:01:31.243Z,66.90
2019-04-22T05:12:01.899Z,66.60
2019-04-22T05:16:47.678Z,72.20
2019-04-22T05:22:05.783Z,76.00
2019-04-22T05:27:08.665Z,78.30
2019-04-22T05:37:15.607Z,78.70
2019-04-22T05:42:20.268Z,78.60
2019-04-22T05:47:25.646Z,78.40
2019-04-22T05:52:34.444Z,76.90
2019-04-22T05:57:42.666Z,76.40
2019-04-22T06:08:02.425Z,75.30
2019-04-22T06:13:06.778Z,73.60
2019-04-22T06:18:25.572Z,71.70
2019-04-22T06:23:35.936Z,72.30
2019-04-22T06:33:53.230Z,72.80
2019-04-22T06:38:46.582Z,70.10
2019-04-22T06:44:04.397Z,69.60
2019-04-22T06:49:11.226Z,69.80
2019-04-22T06:54:14.070Z,70.30
2019-04-22T06:59:19.100Z,70.90
2019-04-22T07:04:27.955Z,70.80
2019-04-22T07:09:43.498Z,71.60
2019-04-22T07:14:44.553Z,73.00
2019-04-22T07:19:51.153Z,73.20
2019-04-22T07:24:58.556Z,71.30
2019-04-22T07:30:15.401Z,70.50
2019-04-22T07:35:16.891Z,69.30
2019-04-22T07:40:32.392Z,68.40
2019-04-22T07:50:50.754Z,68.10
2019-04-22T07:55:45.676Z,69.70
2019-04-22T08:00:57.765Z,68.50
2019-04-22T08:11:25.031Z,68.60
2019-04-22T08:16:19.945Z,69.10
2019-04-22T08:21:22.330Z,69.00
2019-04-22T08:26:33.516Z,68.00
2019-04-22T08:31:48.601Z,69.00
2019-04-22T08:37:22.682Z,65.80
2019-04-22T08:42:09.641Z,65.00
2019-04-22T08:47:11.086Z,63.20
2019-04-22T08:52:16.561Z,61.90
2019-04-22T08:57:31.631Z,63.10
2019-04-22T09:02:32.683Z,61.10
2019-04-22T09:07:38.169Z,61.30
2019-04-22T09:17:56.119Z,58.50
2019-04-22T09:23:03.736Z,58.10
2019-04-22T09:28:07.339Z,57.40
2019-04-22T09:33:28.953Z,57.00
2019-04-22T09:38:32.871Z,55.60
2019-04-22T09:43:31.612Z,55.90
2019-04-22T09:53:55.781Z,54.30
2019-04-22T10:04:00.999Z,53.50
2019-04-22T10:14:18.751Z,50.00
2019-04-22T10:19:23.232Z,49.80
2019-04-22T10:24:33.320Z,46.60
2019-04-22T10:29:52.262Z,48.50
2019-04-22T10:34:34.696Z,47.20
2019-04-22T10:39:43.848Z,47.60
2019-04-22T10:44:44.711Z,48.60
2019-04-22T10:49:50.336Z,46.70
2019-04-22T10:54:56.519Z,46.70
2019-04-22T11:00:02.896Z,47.80
2019-04-22T11:05:12.208Z,49.20
2019-04-22T11:10:35.374Z,46.80
2019-04-22T11:15:28.578Z,45.80
2019-04-22T11:20:35.770Z,46.40
2019-04-22T11:25:43.962Z,46.70
2019-04-22T11:30:50.390Z,46.40
2019-04-22T11:35:57.494Z,45.90
2019-04-22T11:41:05.314Z,47.10
2019-04-22T11:46:13.346Z,47.30
2019-04-22T11:51:20.480Z,45.60
2019-04-22T11:56:27.146Z,45.20
2019-04-22T12:01:34.823Z,45.40
2019-04-22T12:06:41.953Z,44.80
2019-04-22T12:11:49.411Z,44.80
2019-04-22T12:16:55.593Z,43.40
2019-04-22T12:22:02.901Z,44.40
2019-04-22T12:27:12.233Z,43.70
2019-04-22T12:32:18.223Z,43.80
2019-04-22T12:37:32.995Z,44.00
2019-04-22T12:42:33.148Z,45.10
2019-04-22T12:47:40.338Z,43.90
2019-04-22T12:52:55.584Z,42.80
2019-04-22T12:57:58.663Z,42.00
2019-04-22T13:03:03.264Z,41.00
2019-04-22T13:08:09.730Z,42.70
2019-04-22T13:13:15.922Z,42.10
2019-04-22T13:18:33.315Z,43.50
2019-04-22T13:23:29.855Z,44.50
2019-04-22T13:28:36.798Z,43.00
2019-04-22T13:33:43.183Z,41.80
2019-04-22T13:38:49.255Z,43.00
2019-04-22T13:43:56.081Z,40.70
2019-04-22T13:49:31.523Z,42.50
2019-04-22T13:59:26.724Z,43.60
2019-04-22T14:04:28.402Z,42.00
2019-04-22T14:09:35.962Z,41.60
2019-04-22T14:14:43.755Z,43.10
2019-04-22T14:19:50.674Z,43.30
2019-04-22T14:24:56.994Z,42.10
2019-04-22T14:30:04.251Z,42.40
2019-04-22T14:35:13.242Z,42.60
2019-04-22T14:40:22.341Z,42.40
2019-04-22T14:46:04.017Z,40.40
2019-04-22T14:50:57.711Z,40.60
2019-04-22T14:55:44.354Z,41.50
2019-04-22T15:00:51.943Z,42.40
2019-04-22T15:05:58.057Z,42.30
2019-04-22T15:11:06.134Z,42.00
2019-04-22T15:16:29.831Z,41.30
2019-04-22T15:21:36.765Z,39.70
2019-04-22T15:26:42.778Z,40.20
2019-04-22T15:31:49.262Z,39.60
2019-04-22T15:36:55.997Z,39.50
2019-04-22T15:42:11.789Z,40.90
2019-04-22T15:47:11.021Z,41.10
2019-04-22T15:52:18.767Z,41.20
2019-04-22T15:57:25.060Z,41.60
2019-04-22T16:02:31.744Z,39.80
2019-04-22T16:07:38.020Z,40.30
2019-04-22T16:12:52.972Z,41.60
2019-04-22T16:17:52.949Z,42.40
2019-04-22T16:23:22.368Z,42.90
2019-04-22T16:28:29.346Z,42.20
2019-04-22T16:33:39.865Z,41.80
2019-04-22T16:38:44.912Z,42.50
2019-04-22T16:43:51.058Z,42.50
2019-04-22T16:48:57.932Z,42.80
2019-04-22T16:54:04.416Z,43.40
2019-04-22T16:59:10.799Z,43.00
2019-04-22T17:04:34.523Z,43.50
2019-04-22T17:09:41.678Z,44.10
2019-04-22T17:14:54.765Z,44.50
2019-04-22T17:19:55.576Z,44.60
2019-04-22T17:25:02.657Z,45.00
2019-04-22T17:30:10.576Z,45.20
2019-04-22T17:35:17.831Z,45.80
2019-04-22T17:40:38.905Z,45.80
2019-04-22T17:45:55.895Z,46.30
2019-04-22T17:51:10.497Z,46.60
2019-04-22T17:56:15.695Z,47.30
2019-04-22T18:01:28.066Z,46.90
2019-04-22T18:06:44.083Z,45.90
2019-04-22T18:11:53.427Z,46.00
2019-04-22T18:16:56.773Z,46.30
2019-04-22T18:21:53.339Z,46.60
2019-04-22T18:27:06.960Z,46.90
2019-04-22T18:32:05.662Z,47.20
2019-04-22T18:37:18.419Z,47.30
2019-04-22T18:42:23.909Z,47.40
2019-04-22T18:47:32.331Z,47.40
2019-04-22T18:52:54.207Z,47.80
2019-04-22T18:58:03.000Z,48.10
2019-04-22T19:03:01.967Z,48.40
2019-04-22T19:08:36.760Z,48.80
2019-04-22T19:18:41.822Z,50.30
2019-04-22T19:23:51.992Z,51.40
2019-04-22T19:28:55.579Z,52.50
2019-04-22T19:34:03.315Z,53.60
2019-04-22T19:39:10.362Z,54.40
2019-04-22T19:44:21.421Z,55.10
2019-04-22T19:54:38.781Z,54.30
2019-04-22T19:59:45.445Z,53.20
2019-04-22T20:05:05.848Z,51.90
2019-04-22T20:10:19.588Z,51.40
2019-04-22T20:15:18.248Z,51.10
2019-04-22T20:20:34.388Z,50.80
2019-04-22T20:25:34.853Z,50.70
2019-04-22T20:30:45.825Z,50.90
2019-04-22T20:35:56.602Z,50.80
2019-04-22T20:40:58.083Z,50.70
2019-04-22T20:46:11.390Z,50.70
2019-04-22T20:51:17.120Z,51.70
2019-04-22T20:56:25.155Z,52.80
2019-04-22T21:01:33.506Z,53.60
2019-04-22T21:06:38.134Z,54.20
2019-04-22T21:11:45.048Z,54.80
2019-04-22T21:16:56.410Z,55.40
2019-04-22T21:22:12.863Z,55.90
2019-04-22T21:27:13.829Z,56.20
2019-04-22T21:32:22.063Z,56.40
2019-04-22T21:37:34.675Z,56.60
2019-04-22T21:42:45.463Z,57.00
2019-04-22T21:48:00.097Z,57.10
2019-04-22T21:53:03.585Z,57.30
2019-04-22T21:58:16.090Z,58.00
2019-04-22T22:03:27.954Z,57.80
2019-04-22T22:08:33.759Z,58.20
2019-04-22T22:13:34.863Z,58.10
2019-04-22T22:18:35.333Z,58.00
2019-04-22T22:23:52.033Z,58.30
2019-04-22T22:29:05.059Z,58.60
2019-04-22T22:34:09.732Z,58.70
2019-04-22T22:39:07.562Z,59.10
2019-04-22T22:44:08.899Z,59.30
2019-04-22T22:49:35.788Z,59.20
2019-04-22T22:54:42.072Z,59.30
2019-04-22T22:59:44.209Z,59.20
2019-04-22T23:04:55.859Z,59.10
2019-04-22T23:10:05.049Z,58.90
2019-04-22T23:15:04.769Z,58.90
2019-04-22T23:19:57.950Z,58.90
2019-04-22T23:25:40.054Z,59.60
2019-04-22T23:30:38.256Z,59.20
2019-04-22T23:35:56.042Z,59.60
2019-04-22T23:41:06.968Z,59.90
2019-04-22T23:46:14.794Z,59.80
2019-04-22T23:51:22.568Z,59.90
2019-04-22T23:56:29.430Z,59.90
